createdAt,value
2019-03-24T00:02:16.095Z,8.57
2019-03-24T00:05:22.569Z,8.60
2019-03-24T00:08:28.829Z,8.50
2019-03-24T00:11:35.073Z,8.13
2019-03-24T00:14:41.442Z,7.80
2019-03-24T00:17:47.746Z,8.47
2019-03-24T00:20:54.436Z,8.23
2019-03-24T00:24:00.728Z,7.87
2019-03-24T00:27:07.139Z,8.00
2019-03-24T00:30:13.905Z,7.50
2019-03-24T00:33:20.226Z,7.97
2019-03-24T00:36:26.545Z,7.90
2019-03-24T00:39:32.935Z,7.60
2019-03-24T00:42:39.237Z,7.30
2019-03-24T00:45:45.773Z,7.23
2019-03-24T00:48:53.098Z,7.60
2019-03-24T00:51:59.399Z,7.30
2019-03-24T00:55:05.912Z,8.03
2019-03-24T00:58:12.193Z,8.00
2019-03-24T01:01:19.319Z,8.40
2019-03-24T01:04:25.663Z,8.27
2019-03-24T01:07:31.978Z,7.53
2019-03-24T01:10:39.559Z,7.53
2019-03-24T01:13:46.965Z,8.40
2019-03-24T01:16:53.235Z,7.90
2019-03-24T01:19:59.562Z,7.77
2019-03-24T01:23:06.060Z,8.13
2019-03-24T01:26:12.829Z,7.70
2019-03-24T01:29:19.086Z,7.70
2019-03-24T01:32:25.493Z,8.03
2019-03-24T01:35:31.848Z,7.00
2019-03-24T01:38:39.380Z,7.17
2019-03-24T01:41:45.740Z,6.20
2019-03-24T01:44:52.129Z,6.43
2019-03-24T01:47:58.429Z,6.50
2019-03-24T01:51:04.876Z,5.80
2019-03-24T01:54:11.145Z,5.93
2019-03-24T01:57:17.526Z,6.23
2019-03-24T02:00:23.916Z,6.60
2019-03-24T02:03:30.474Z,6.60
2019-03-24T02:06:38.642Z,7.27
2019-03-24T02:09:45.042Z,7.40
2019-03-24T02:12:51.395Z,7.67
2019-03-24T02:15:57.758Z,7.03
2019-03-24T02:19:05.460Z,6.37
2019-03-24T02:22:11.838Z,7.00
2019-03-24T02:25:19.212Z,6.93
2019-03-24T02:28:25.503Z,6.77
2019-03-24T02:31:31.821Z,7.20
2019-03-24T02:34:38.044Z,6.77
2019-03-24T02:37:44.390Z,7.20
2019-03-24T02:40:50.657Z,7.43
2019-03-24T02:43:57.039Z,7.30
2019-03-24T02:47:03.357Z,6.50
2019-03-24T02:50:10.448Z,5.77
2019-03-24T02:53:16.723Z,7.30
2019-03-24T02:56:23.047Z,6.83
2019-03-24T02:59:29.321Z,6.43
2019-03-24T03:02:35.696Z,6.27
2019-03-24T03:05:42.243Z,7.40
2019-03-24T03:08:48.491Z,7.43
2019-03-24T03:11:54.867Z,6.93
2019-03-24T03:15:01.209Z,7.00
2019-03-24T03:18:08.428Z,7.93
2019-03-24T03:21:14.699Z,7.50
2019-03-24T03:24:21.025Z,7.73
2019-03-24T03:27:27.480Z,7.00
2019-03-24T03:30:33.752Z,7.03
2019-03-24T03:33:40.076Z,7.30
2019-03-24T03:36:46.343Z,7.07
2019-03-24T03:39:57.378Z,7.27
2019-03-24T03:43:00.693Z,7.50
2019-03-24T03:46:07.161Z,7.00
2019-03-24T03:49:13.426Z,7.30
2019-03-24T03:52:19.924Z,7.90
2019-03-24T03:55:26.287Z,7.70
2019-03-24T03:58:32.558Z,8.20
2019-03-24T04:01:38.852Z,7.90
2019-03-24T04:04:45.235Z,7.87
2019-03-24T04:07:52.483Z,7.93
2019-03-24T04:10:58.842Z,8.57
2019-03-24T04:14:05.332Z,9.40
2019-03-24T04:17:11.621Z,9.60
2019-03-24T04:20:18.062Z,11.17
2019-03-24T04:23:24.355Z,11.70
2019-03-24T04:26:30.682Z,12.90
2019-03-24T04:29:36.970Z,13.37
2019-03-24T04:32:43.260Z,13.83
2019-03-24T04:35:49.520Z,15.47
2019-03-24T04:38:55.814Z,15.30
2019-03-24T04:42:02.107Z,14.93
2019-03-24T04:45:08.805Z,15.43
2019-03-24T04:48:15.073Z,15.37
2019-03-24T04:51:21.325Z,15.37
2019-03-24T04:54:27.632Z,15.30
2019-03-24T04:57:33.909Z,14.83
2019-03-24T05:00:41.243Z,13.80
2019-03-24T05:03:47.632Z,14.20
2019-03-24T05:06:54.446Z,12.93
2019-03-24T05:10:00.952Z,12.17
2019-03-24T05:13:07.269Z,11.87
2019-03-24T05:16:13.747Z,12.13
2019-03-24T05:19:20.058Z,12.00
2019-03-24T05:22:26.504Z,14.03
2019-03-24T05:25:32.792Z,14.87
2019-03-24T05:28:39.086Z,13.67
2019-03-24T05:31:45.404Z,13.43
2019-03-24T05:34:51.684Z,14.13
2019-03-24T05:37:57.995Z,12.57
2019-03-24T05:41:04.357Z,13.07
2019-03-24T05:44:10.680Z,14.10
2019-03-24T05:47:17.031Z,13.70
2019-03-24T05:50:23.331Z,13.83
2019-03-24T05:53:29.602Z,12.70
2019-03-24T05:56:35.989Z,12.17
2019-03-24T05:59:43.289Z,12.00
2019-03-24T06:02:49.568Z,12.60
2019-03-24T06:05:55.883Z,11.37
2019-03-24T06:09:02.176Z,10.90
2019-03-24T06:12:09.660Z,11.17
2019-03-24T06:15:16.146Z,10.13
2019-03-24T06:18:22.443Z,10.17
2019-03-24T06:21:28.709Z,10.43
2019-03-24T06:24:35.021Z,9.73
2019-03-24T06:27:41.344Z,8.60
2019-03-24T06:30:47.689Z,10.50
2019-03-24T06:33:53.992Z,10.27
2019-03-24T06:37:00.381Z,9.13
2019-03-24T06:40:06.859Z,10.10
2019-03-24T06:43:13.149Z,9.43
2019-03-24T06:46:19.412Z,8.87
2019-03-24T06:49:25.687Z,9.27
2019-03-24T06:52:32.111Z,9.17
2019-03-24T06:55:38.397Z,10.10
2019-03-24T06:58:44.702Z,9.20
2019-03-24T07:01:51.142Z,10.23
2019-03-24T07:04:57.430Z,9.27
2019-03-24T07:08:03.789Z,10.00
2019-03-24T07:11:13.628Z,10.63
2019-03-24T07:14:18.128Z,9.50
2019-03-24T07:17:24.534Z,10.27
2019-03-24T07:20:30.854Z,10.10
2019-03-24T07:23:37.130Z,10.90
2019-03-24T07:26:43.413Z,10.33
2019-03-24T07:29:49.790Z,9.90
2019-03-24T07:32:56.060Z,10.50
2019-03-24T07:36:02.382Z,10.73
2019-03-24T07:39:09.128Z,10.20
2019-03-24T07:42:15.460Z,10.63
2019-03-24T07:45:21.861Z,10.67
2019-03-24T07:48:28.174Z,10.70
2019-03-24T07:51:34.533Z,9.57
2019-03-24T07:54:40.903Z,10.00
2019-03-24T07:57:48.456Z,10.57
2019-03-24T08:00:54.751Z,11.93
2019-03-24T08:04:01.108Z,10.97
2019-03-24T08:07:07.632Z,11.33
2019-03-24T08:10:14.332Z,11.10
2019-03-24T08:13:20.872Z,10.97
2019-03-24T08:16:27.084Z,11.43
2019-03-24T08:19:33.407Z,11.23
2019-03-24T08:22:39.694Z,11.73
2019-03-24T08:25:46.100Z,11.03
2019-03-24T08:28:52.412Z,11.50
2019-03-24T08:31:58.817Z,11.27
2019-03-24T08:35:05.292Z,9.90
2019-03-24T08:38:11.639Z,10.87
2019-03-24T08:41:17.935Z,12.67
2019-03-24T08:44:24.445Z,11.37
2019-03-24T08:47:31.826Z,11.07
2019-03-24T08:50:38.344Z,11.53
2019-03-24T08:53:44.694Z,11.63
2019-03-24T08:56:52.044Z,11.10
2019-03-24T08:59:58.380Z,11.13
2019-03-24T09:03:04.909Z,10.97
2019-03-24T09:06:11.483Z,10.63
2019-03-24T09:09:17.741Z,10.67
2019-03-24T09:12:24.072Z,11.13
2019-03-24T09:15:30.439Z,10.53
2019-03-24T09:18:36.765Z,11.27
2019-03-24T09:21:43.061Z,11.03
2019-03-24T09:24:49.447Z,9.83
2019-03-24T09:27:55.738Z,9.57
2019-03-24T09:31:01.295Z,10.27
2019-03-24T09:34:07.807Z,9.37
2019-03-24T09:37:14.215Z,9.50
2019-03-24T09:40:27.287Z,10.10
2019-03-24T09:43:33.709Z,9.37
2019-03-24T09:46:39.978Z,10.97
2019-03-24T09:49:46.333Z,8.83
2019-03-24T09:52:52.650Z,9.33
2019-03-24T09:55:58.954Z,10.93
2019-03-24T09:59:05.247Z,9.93
2019-03-24T10:02:11.552Z,10.40
2019-03-24T10:05:17.974Z,9.97
2019-03-24T10:08:24.498Z,10.00
2019-03-24T10:11:30.836Z,10.00
2019-03-24T10:14:37.113Z,9.77
2019-03-24T10:17:43.390Z,10.47
2019-03-24T10:20:49.740Z,9.93
2019-03-24T10:23:56.064Z,9.70
2019-03-24T10:27:02.528Z,9.83
2019-03-24T10:30:10.078Z,10.03
2019-03-24T10:33:16.392Z,9.47
2019-03-24T10:36:22.747Z,10.23
2019-03-24T10:39:29.049Z,9.83
2019-03-24T10:42:35.321Z,9.90
2019-03-24T10:45:41.780Z,10.07
2019-03-24T10:48:48.115Z,9.77
2019-03-24T10:51:54.450Z,10.83
2019-03-24T10:55:01.137Z,10.10
2019-03-24T10:58:07.672Z,10.00
2019-03-24T11:01:13.953Z,10.30
2019-03-24T11:04:21.238Z,10.17
2019-03-24T11:07:27.589Z,9.97
2019-03-24T11:10:33.955Z,9.43
2019-03-24T11:13:40.457Z,10.33
2019-03-24T11:16:46.826Z,9.80
2019-03-24T11:19:53.205Z,9.43
2019-03-24T11:22:59.462Z,9.47
2019-03-24T11:26:05.871Z,9.97
2019-03-24T11:29:12.193Z,9.90
2019-03-24T11:32:18.531Z,9.57
2019-03-24T11:35:24.786Z,9.23
2019-03-24T11:38:31.064Z,9.70
2019-03-24T11:41:39.845Z,9.97
2019-03-24T11:44:46.436Z,9.73
2019-03-24T11:47:52.923Z,9.53
2019-03-24T11:50:59.205Z,9.63
2019-03-24T11:54:05.540Z,8.90
2019-03-24T11:57:11.846Z,8.90
2019-03-24T12:00:18.626Z,9.30
2019-03-24T12:03:25.483Z,8.33
2019-03-24T12:06:31.997Z,7.67
2019-03-24T12:09:38.493Z,8.27
2019-03-24T12:12:44.806Z,8.30
2019-03-24T12:15:51.307Z,8.40
2019-03-24T12:18:57.686Z,8.87
2019-03-24T12:22:04.073Z,8.57
2019-03-24T12:25:10.573Z,7.03
2019-03-24T12:28:16.859Z,7.63
2019-03-24T12:31:23.256Z,7.80
2019-03-24T12:34:29.631Z,7.40
2019-03-24T12:37:35.893Z,7.93
2019-03-24T12:40:42.195Z,7.90
2019-03-24T12:43:48.592Z,7.57
2019-03-24T12:46:55.199Z,6.90
2019-03-24T12:50:08.940Z,7.30
2019-03-24T12:53:09.490Z,6.90
2019-03-24T12:56:15.745Z,8.00
2019-03-24T12:59:22.002Z,6.63
2019-03-24T13:02:28.396Z,6.77
2019-03-24T13:05:34.908Z,7.30
2019-03-24T13:08:41.171Z,7.30
2019-03-24T13:11:47.597Z,6.17
2019-03-24T13:14:53.845Z,5.80
2019-03-24T13:18:00.168Z,6.00
2019-03-24T13:21:06.550Z,6.23
2019-03-24T13:24:12.827Z,6.47
2019-03-24T13:27:19.288Z,6.47
2019-03-24T13:30:25.794Z,6.60
2019-03-24T13:33:32.058Z,6.37
2019-03-24T13:36:38.309Z,6.40
2019-03-24T13:39:44.641Z,6.67
2019-03-24T13:42:51.041Z,6.17
2019-03-24T13:45:57.551Z,6.60
2019-03-24T13:49:03.865Z,7.00
2019-03-24T13:52:10.303Z,6.37
2019-03-24T13:55:16.770Z,6.70
2019-03-24T13:58:23.276Z,6.47
2019-03-24T14:01:29.800Z,6.33
2019-03-24T14:04:36.055Z,7.03
2019-03-24T14:07:42.585Z,6.60
2019-03-24T14:10:49.051Z,6.73
2019-03-24T14:13:55.488Z,6.73
2019-03-24T14:17:01.833Z,6.63
2019-03-24T14:20:08.757Z,6.40
2019-03-24T14:23:16.341Z,6.40
2019-03-24T14:26:22.695Z,6.80
2019-03-24T14:29:29.023Z,6.20
2019-03-24T14:32:35.391Z,6.73
2019-03-24T14:35:41.732Z,6.10
2019-03-24T14:38:47.999Z,6.33
2019-03-24T14:41:54.431Z,6.60
2019-03-24T14:45:01.813Z,6.40
2019-03-24T14:48:08.502Z,6.27
2019-03-24T14:51:15.022Z,6.73
2019-03-24T14:54:21.507Z,6.57
2019-03-24T14:57:28.783Z,6.73
2019-03-24T15:00:40.553Z,6.63
2019-03-24T15:03:46.815Z,6.60
2019-03-24T15:06:53.162Z,6.50
2019-03-24T15:09:59.473Z,6.63
2019-03-24T15:13:06.092Z,6.13
2019-03-24T15:16:12.360Z,7.07
2019-03-24T15:19:18.667Z,6.57
2019-03-24T15:22:25.018Z,7.83
2019-03-24T15:25:31.405Z,12.13
2019-03-24T15:28:38.010Z,8.53
2019-03-24T15:31:44.323Z,5.90
2019-03-24T15:34:50.640Z,5.47
2019-03-24T15:38:07.791Z,6.00
2019-03-24T15:41:05.044Z,6.57
2019-03-24T15:44:11.457Z,6.93
2019-03-24T15:47:17.723Z,6.53
2019-03-24T15:50:24.155Z,6.73
2019-03-24T15:53:30.686Z,6.53
2019-03-24T15:56:37.111Z,7.33
2019-03-24T15:59:43.486Z,6.93
2019-03-24T16:02:50.503Z,6.80
2019-03-24T16:05:56.742Z,6.97
2019-03-24T16:09:04.035Z,6.87
2019-03-24T16:12:10.322Z,7.57
2019-03-24T16:15:16.628Z,7.70
2019-03-24T16:18:23.697Z,7.90
2019-03-24T16:21:31.275Z,7.63
2019-03-24T16:24:39.234Z,8.23
2019-03-24T16:27:45.678Z,8.93
2019-03-24T16:30:52.034Z,8.50
2019-03-24T16:33:58.683Z,8.30
2019-03-24T16:37:05.079Z,8.50
2019-03-24T16:40:11.633Z,8.10
2019-03-24T16:43:18.732Z,8.23
2019-03-24T16:46:25.031Z,7.57
2019-03-24T16:49:32.312Z,7.47
2019-03-24T16:52:38.632Z,7.30
2019-03-24T16:55:45.653Z,7.57
2019-03-24T16:58:53.127Z,8.10
2019-03-24T17:01:59.422Z,7.63
2019-03-24T17:05:06.878Z,7.37
2019-03-24T17:08:13.914Z,8.50
2019-03-24T17:11:20.314Z,8.57
2019-03-24T17:14:27.599Z,8.97
2019-03-24T17:17:33.889Z,8.37
2019-03-24T17:20:40.601Z,8.63
2019-03-24T17:23:47.760Z,8.83
2019-03-24T17:26:54.258Z,9.60
2019-03-24T17:30:01.664Z,9.17
2019-03-24T17:33:08.956Z,9.33
2019-03-24T17:36:15.240Z,9.80
2019-03-24T17:39:22.288Z,8.83
2019-03-24T17:42:29.595Z,8.70
2019-03-24T17:45:36.190Z,9.57
2019-03-24T17:48:42.656Z,8.93
2019-03-24T17:52:00.225Z,9.87
2019-03-24T17:54:58.669Z,9.43
2019-03-24T17:58:05.982Z,10.60
2019-03-24T18:01:12.479Z,12.33
2019-03-24T18:04:24.618Z,12.07
2019-03-24T18:07:27.980Z,13.37
2019-03-24T18:10:35.349Z,12.73
2019-03-24T18:13:42.522Z,14.87
2019-03-24T18:16:49.696Z,24.57
2019-03-24T18:19:56.203Z,16.23
2019-03-24T18:23:03.369Z,11.63
2019-03-24T18:26:09.667Z,13.30
2019-03-24T18:29:17.444Z,12.47
2019-03-24T18:32:23.754Z,15.37
2019-03-24T18:35:30.705Z,15.93
2019-03-24T18:38:37.005Z,17.47
2019-03-24T18:41:43.321Z,18.97
2019-03-24T18:44:50.421Z,19.97
2019-03-24T18:47:57.926Z,20.90
2019-03-24T18:51:04.631Z,19.90
2019-03-24T18:54:11.011Z,17.23
2019-03-24T18:57:18.402Z,16.80
2019-03-24T19:00:26.352Z,16.23
2019-03-24T19:03:33.387Z,17.70
2019-03-24T19:06:40.565Z,17.03
2019-03-24T19:09:47.022Z,16.37
2019-03-24T19:12:53.840Z,15.60
2019-03-24T19:16:00.136Z,15.50
2019-03-24T19:19:06.733Z,16.30
2019-03-24T19:22:13.383Z,14.47
2019-03-24T19:25:19.834Z,14.50
2019-03-24T19:28:26.368Z,14.10
2019-03-24T19:31:33.734Z,15.07
2019-03-24T19:34:40.114Z,16.03
2019-03-24T19:37:48.192Z,14.63
2019-03-24T19:40:54.496Z,11.77
2019-03-24T19:44:01.533Z,11.00
2019-03-24T19:47:08.584Z,11.43
2019-03-24T19:50:15.277Z,11.40
2019-03-24T19:53:22.792Z,12.00
2019-03-24T19:56:29.844Z,12.60
2019-03-24T19:59:36.976Z,12.40
2019-03-24T20:02:44.452Z,14.77
2019-03-24T20:05:50.771Z,14.63
2019-03-24T20:08:57.510Z,15.83
2019-03-24T20:12:03.894Z,15.10
2019-03-24T20:15:10.873Z,17.37
2019-03-24T20:18:17.134Z,17.00
2019-03-24T20:21:23.440Z,18.17
2019-03-24T20:24:30.658Z,17.13
2019-03-24T20:27:36.973Z,16.80
2019-03-24T20:30:43.483Z,16.93
2019-03-24T20:33:50.436Z,15.27
2019-03-24T20:36:57.468Z,14.77
2019-03-24T20:40:03.886Z,13.80
2019-03-24T20:43:11.707Z,12.63
2019-03-24T20:46:17.992Z,12.57
2019-03-24T20:49:27.322Z,12.63
2019-03-24T20:52:33.630Z,12.20
2019-03-24T20:55:40.677Z,11.83
2019-03-24T20:58:46.963Z,11.87
2019-03-24T21:01:54.107Z,11.50
2019-03-24T21:05:02.137Z,12.10
2019-03-24T21:08:09.950Z,11.57
2019-03-24T21:11:16.172Z,10.53
2019-03-24T21:14:22.732Z,12.07
2019-03-24T21:17:30.093Z,10.97
2019-03-24T21:20:37.333Z,11.07
2019-03-24T21:23:43.635Z,10.77
2019-03-24T21:26:50.839Z,11.57
2019-03-24T21:29:58.034Z,11.30
2019-03-24T21:33:04.513Z,10.43
2019-03-24T21:36:11.735Z,10.57
2019-03-24T21:39:17.997Z,11.20
2019-03-24T21:42:24.367Z,10.10
2019-03-24T21:45:30.767Z,10.30
2019-03-24T21:48:37.194Z,10.10
2019-03-24T21:51:43.606Z,9.80
2019-03-24T21:54:49.908Z,9.67
2019-03-24T21:57:57.705Z,9.90
2019-03-24T22:01:04.407Z,10.07
2019-03-24T22:04:11.829Z,9.47
2019-03-24T22:07:18.148Z,9.30
2019-03-24T22:10:24.417Z,9.90
2019-03-24T22:13:30.683Z,9.87
2019-03-24T22:16:37.051Z,10.60
2019-03-24T22:19:43.327Z,9.53
2019-03-24T22:22:49.591Z,9.50
2019-03-24T22:25:55.877Z,9.60
2019-03-24T22:29:02.173Z,10.37
2019-03-24T22:32:08.534Z,10.10
2019-03-24T22:35:14.813Z,10.20
2019-03-24T22:38:21.154Z,10.70
2019-03-24T22:41:27.423Z,9.43
2019-03-24T22:44:33.863Z,10.53
2019-03-24T22:47:40.126Z,10.33
2019-03-24T22:50:46.471Z,9.90
2019-03-24T22:54:02.981Z,10.20
2019-03-24T22:57:00.758Z,10.47
2019-03-24T23:00:12.065Z,10.60
2019-03-24T23:03:19.983Z,10.87
2019-03-24T23:06:26.321Z,10.17
2019-03-24T23:09:32.646Z,9.60
2019-03-24T23:12:39.030Z,10.13
2019-03-24T23:15:45.385Z,10.53
2019-03-24T23:18:51.837Z,10.37
2019-03-24T23:22:00.963Z,10.43
2019-03-24T23:25:08.085Z,10.13
2019-03-24T23:28:14.681Z,10.33
2019-03-24T23:31:20.952Z,10.33
2019-03-24T23:34:27.358Z,9.97
2019-03-24T23:37:33.630Z,11.20
2019-03-24T23:40:40.060Z,10.47
2019-03-24T23:43:46.329Z,10.40
2019-03-24T23:46:53.905Z,10.93
2019-03-24T23:50:00.343Z,10.00
2019-03-24T23:53:06.880Z,10.27
2019-03-24T23:56:13.232Z,10.03
2019-03-24T23:59:19.524Z,9.93
